createdAt,value
2022-09-30T07:19:12.734Z,11.10
2022-09-30T07:22:20.002Z,11.20
2022-09-30T07:25:09.727Z,11.30
2022-09-30T07:27:57.159Z,11.30
2022-09-30T07:30:44.299Z,11.40
2022-09-30T07:33:32.611Z,11.60
2022-09-30T07:36:31.873Z,11.60
2022-09-30T07:39:20.474Z,11.80
2022-09-30T07:49:26.055Z,11.90
2022-09-30T08:04:27.218Z,12.30
2022-09-30T08:07:20.487Z,12.30
2022-09-30T08:10:08.598Z,12.30
2022-09-30T08:12:59.220Z,12.40
2022-09-30T08:19:28.429Z,12.40
2022-09-30T08:22:36.871Z,12.40
2022-09-30T08:25:25.358Z,12.40
2022-09-30T08:28:13.501Z,12.50
2022-09-30T08:35:00.335Z,12.40
2022-09-30T08:37:47.668Z,12.50
2022-09-30T08:40:44.907Z,12.50
2022-09-30T08:43:43.936Z,12.60
2022-09-30T08:49:39.974Z,12.70
2022-09-30T08:52:54.991Z,12.70
2022-09-30T08:55:59.915Z,12.80
2022-09-30T08:59:33.542Z,12.80
2022-09-30T09:02:50.615Z,12.80
2022-09-30T09:05:51.553Z,12.90
2022-09-30T09:09:03.211Z,12.90
2022-09-30T09:12:14.764Z,13.10
2022-09-30T09:15:43.139Z,13.10
2022-09-30T09:18:50.230Z,13.30
2022-09-30T09:21:44.293Z,13.30
2022-09-30T09:24:47.280Z,13.40
2022-09-30T09:27:55.176Z,13.50
2022-09-30T09:30:53.073Z,13.50
2022-09-30T09:33:41.531Z,13.80
2022-09-30T09:36:54.862Z,14.00
2022-09-30T09:40:09.327Z,14.30
2022-09-30T09:43:19.504Z,15.00
2022-09-30T09:46:23.889Z,15.00
2022-09-30T09:49:14.200Z,15.50
2022-09-30T09:52:05.914Z,15.80
2022-09-30T09:55:01.005Z,15.80
2022-09-30T09:58:04.342Z,15.80
2022-09-30T10:01:33.039Z,16.10
2022-09-30T10:04:32.942Z,16.30
2022-09-30T10:07:23.199Z,16.50
2022-09-30T10:10:24.487Z,16.40
2022-09-30T10:13:33.322Z,16.50
2022-09-30T10:16:44.201Z,16.70
2022-09-30T10:19:40.863Z,17.20
2022-09-30T10:22:33.314Z,17.00
2022-09-30T10:25:28.025Z,16.40
2022-09-30T10:28:34.055Z,16.50
2022-09-30T10:31:35.377Z,16.30
2022-09-30T10:34:37.222Z,16.00
2022-09-30T10:37:25.568Z,15.70
2022-09-30T10:40:17.322Z,15.70
2022-09-30T10:43:19.774Z,16.20
2022-09-30T10:46:26.841Z,16.60
2022-09-30T12:32:11.519Z,18.50
2022-09-30T12:35:39.313Z,18.00
2022-09-30T12:38:55.091Z,17.50
2022-09-30T12:42:10.844Z,17.90
2022-09-30T12:46:12.723Z,17.90
2022-09-30T12:49:06.497Z,17.60
2022-09-30T12:52:07.701Z,17.20
2022-09-30T12:55:13.192Z,17.00
2022-09-30T12:58:01.918Z,16.80
2022-09-30T13:01:26.109Z,17.10
2022-09-30T13:13:21.371Z,16.60
2022-09-30T13:19:05.038Z,16.60
2022-09-30T13:21:52.356Z,16.60
2022-09-30T13:25:00.679Z,16.60
2022-09-30T13:27:55.578Z,16.50
2022-09-30T13:30:45.110Z,16.40
2022-09-30T13:36:59.538Z,16.10
2022-09-30T13:39:56.983Z,16.20
2022-09-30T13:42:50.101Z,16.10
2022-09-30T13:45:39.756Z,16.20
2022-09-30T13:48:38.214Z,16.20
2022-09-30T13:51:29.611Z,16.30
2022-09-30T13:54:37.743Z,16.40
2022-09-30T13:57:32.207Z,17.00
2022-09-30T14:00:22.107Z,16.90
2022-09-30T14:03:38.800Z,17.10
2022-09-30T14:07:04.338Z,16.90
2022-09-30T14:10:09.401Z,16.60
2022-09-30T14:13:15.245Z,16.90
2022-09-30T14:16:44.097Z,17.10
2022-09-30T14:20:04.052Z,17.40
2022-09-30T14:22:51.858Z,17.30
2022-09-30T14:25:47.707Z,17.70
2022-09-30T14:29:08.540Z,17.80
2022-09-30T14:31:56.228Z,18.10
2022-09-30T14:34:45.345Z,17.70
2022-09-30T14:37:42.313Z,17.90
2022-09-30T14:40:39.734Z,17.70
2022-09-30T14:43:37.816Z,18.00
2022-09-30T14:46:50.049Z,18.00
2022-09-30T14:49:38.512Z,18.00
2022-09-30T14:52:37.694Z,17.90
2022-09-30T14:55:35.233Z,17.80
2022-09-30T14:58:29.007Z,17.90
2022-09-30T15:01:17.598Z,18.10
2022-09-30T15:04:15.087Z,18.10
2022-09-30T15:07:04.545Z,18.60
2022-09-30T15:09:53.515Z,18.30
2022-09-30T15:12:42.821Z,17.90
2022-09-30T15:15:36.976Z,17.90
2022-09-30T15:18:33.781Z,17.70
2022-09-30T15:21:22.773Z,17.40
2022-09-30T15:24:12.278Z,17.50
2022-09-30T15:27:01.803Z,17.70
2022-09-30T15:30:23.829Z,17.60
2022-09-30T15:33:57.532Z,17.80
2022-09-30T15:36:51.268Z,17.50
2022-09-30T15:40:05.219Z,16.90
2022-09-30T15:43:01.363Z,16.80
2022-09-30T15:45:50.388Z,16.50
2022-09-30T15:48:44.710Z,16.40
2022-09-30T15:51:37.073Z,16.40
2022-09-30T15:54:36.081Z,16.50
2022-09-30T15:57:49.914Z,16.30
2022-09-30T16:00:42.166Z,16.30
2022-09-30T16:03:31.029Z,16.10
2022-09-30T16:06:27.103Z,16.10
2022-09-30T16:09:20.595Z,16.00
2022-09-30T16:12:08.832Z,15.90
2022-09-30T16:15:16.640Z,16.00
2022-09-30T16:18:04.501Z,16.00
2022-09-30T16:21:03.571Z,16.00
2022-09-30T16:23:51.067Z,16.00
2022-09-30T16:26:45.381Z,15.90
2022-09-30T16:29:32.526Z,15.90
2022-09-30T16:32:20.182Z,15.80
2022-09-30T16:35:19.311Z,15.80
2022-09-30T16:38:09.877Z,15.80
2022-09-30T16:40:58.247Z,15.70
2022-09-30T16:43:45.400Z,15.70
2022-09-30T16:46:33.363Z,15.60
2022-09-30T16:49:21.220Z,15.60
2022-09-30T16:52:11.235Z,15.50
2022-09-30T16:54:58.840Z,15.50
2022-09-30T16:57:46.372Z,15.40
2022-09-30T17:00:34.290Z,15.40
2022-09-30T17:03:22.133Z,15.40
2022-09-30T17:06:09.685Z,15.40
2022-09-30T17:08:58.079Z,15.30
2022-09-30T17:11:45.577Z,15.30
2022-09-30T17:14:33.267Z,15.20
2022-09-30T17:17:20.779Z,15.20
2022-09-30T17:20:09.094Z,15.30
2022-09-30T17:22:56.640Z,15.10
2022-09-30T17:25:44.120Z,15.10
2022-09-30T17:28:34.679Z,15.10
2022-09-30T17:31:22.234Z,15.10
2022-09-30T17:34:09.875Z,15.00
2022-09-30T17:36:57.094Z,15.10
2022-09-30T17:39:44.759Z,15.10
2022-09-30T17:42:51.986Z,15.00
2022-09-30T17:45:48.524Z,14.90
2022-09-30T17:48:38.014Z,14.90
2022-09-30T17:51:25.708Z,14.90
2022-09-30T17:54:13.288Z,14.90
2022-09-30T17:57:00.860Z,14.90
2022-09-30T17:59:48.014Z,14.80
2022-09-30T18:02:35.582Z,14.80
2022-09-30T18:05:25.719Z,14.70
2022-09-30T18:08:13.892Z,14.80
2022-09-30T18:11:01.658Z,14.70
2022-09-30T18:13:58.061Z,14.70
2022-09-30T18:16:45.838Z,14.70
2022-09-30T18:19:35.450Z,14.60
2022-09-30T18:22:22.763Z,14.60
2022-09-30T18:25:25.976Z,14.60
2022-09-30T18:28:14.077Z,14.60
2022-09-30T18:31:08.374Z,14.60
2022-09-30T18:33:56.823Z,14.70
2022-09-30T18:36:44.443Z,14.60
2022-09-30T18:39:35.520Z,14.60
2022-09-30T18:42:23.020Z,14.50
2022-09-30T18:45:12.681Z,14.60
2022-09-30T18:48:00.821Z,14.60
2022-09-30T18:50:49.275Z,14.60
2022-09-30T18:53:36.519Z,14.50
2022-09-30T18:56:25.718Z,14.60
2022-09-30T18:59:18.049Z,14.50
2022-09-30T19:02:13.922Z,14.50
2022-09-30T19:05:01.422Z,14.50
2022-09-30T19:07:49.178Z,14.50
2022-09-30T19:10:41.578Z,14.40
2022-09-30T19:13:29.887Z,14.50
2022-09-30T19:16:38.919Z,14.40
2022-09-30T19:19:26.910Z,14.40
2022-09-30T19:22:14.470Z,14.30
2022-09-30T19:25:02.102Z,14.40
2022-09-30T19:27:49.984Z,14.30
2022-09-30T19:30:41.924Z,14.30
2022-09-30T19:33:29.243Z,14.30
2022-09-30T19:36:16.944Z,14.40
2022-09-30T19:39:11.753Z,14.30
2022-09-30T19:42:03.139Z,14.30
2022-09-30T19:44:51.861Z,14.20
2022-09-30T19:47:39.298Z,14.20
2022-09-30T19:50:27.133Z,14.20
2022-09-30T19:53:27.623Z,14.20
2022-09-30T19:56:19.443Z,14.30
2022-09-30T19:59:06.967Z,14.30
2022-09-30T20:01:54.100Z,14.30
2022-09-30T20:04:43.760Z,14.30
2022-09-30T20:07:31.285Z,14.20
2022-09-30T20:10:19.031Z,14.20
2022-09-30T20:13:06.533Z,14.20
2022-09-30T20:15:54.161Z,14.20
2022-09-30T20:18:42.973Z,14.20
2022-09-30T20:21:31.030Z,14.10
2022-09-30T20:24:19.436Z,14.20
2022-09-30T20:27:06.772Z,14.20
2022-09-30T20:29:54.433Z,14.10
2022-09-30T20:32:42.168Z,14.20
2022-09-30T20:35:29.471Z,14.10
2022-09-30T20:38:24.854Z,14.10
2022-09-30T20:41:12.244Z,14.10
2022-09-30T20:44:00.240Z,14.10
2022-09-30T20:46:47.996Z,14.00
2022-09-30T20:49:35.206Z,14.00
2022-09-30T20:52:24.248Z,13.90
2022-09-30T20:55:11.941Z,13.80
2022-09-30T20:57:59.250Z,13.80
2022-09-30T21:00:46.650Z,13.80
2022-09-30T21:03:54.553Z,13.70
2022-09-30T21:06:47.663Z,13.50
2022-09-30T21:09:48.783Z,13.50
2022-09-30T21:12:35.895Z,13.30
2022-09-30T21:15:23.360Z,13.40
2022-09-30T21:18:11.150Z,13.30
2022-09-30T21:21:00.664Z,13.40
2022-09-30T21:23:48.556Z,13.40
2022-09-30T21:26:36.233Z,13.20
2022-09-30T21:29:23.833Z,13.20
2022-09-30T21:32:11.574Z,13.20
2022-09-30T21:34:59.276Z,13.20
2022-09-30T21:37:49.120Z,13.10
2022-09-30T21:40:36.466Z,13.00
2022-09-30T21:43:23.868Z,13.10
2022-09-30T21:46:13.923Z,13.00
2022-09-30T21:49:15.916Z,12.90
2022-09-30T21:52:07.701Z,12.90
2022-09-30T21:54:56.906Z,12.70
2022-09-30T21:57:45.930Z,12.70
2022-09-30T22:00:33.245Z,12.60
2022-09-30T22:03:21.280Z,12.70
2022-09-30T22:06:10.293Z,12.60
2022-09-30T22:09:01.324Z,12.50
2022-09-30T22:11:51.488Z,12.50
2022-09-30T22:14:39.015Z,12.60
2022-09-30T22:17:26.453Z,12.50
2022-09-30T22:20:13.508Z,12.50
2022-09-30T22:23:00.962Z,12.40
2022-09-30T22:25:48.537Z,12.30
2022-09-30T22:28:37.943Z,12.30
2022-09-30T22:31:32.806Z,12.20
2022-09-30T22:34:39.418Z,12.30
2022-09-30T22:37:45.715Z,12.20
2022-09-30T22:40:34.401Z,12.10
2022-09-30T22:43:25.359Z,12.20
2022-09-30T22:46:12.520Z,12.10
2022-09-30T22:48:59.667Z,12.20
2022-09-30T22:51:54.285Z,12.00
2022-09-30T22:54:41.355Z,12.00
2022-09-30T22:57:28.509Z,12.10
2022-09-30T23:00:16.006Z,12.10
2022-09-30T23:03:03.574Z,12.00
2022-09-30T23:06:00.545Z,12.00
2022-09-30T23:08:47.760Z,12.00
2022-09-30T23:11:39.243Z,12.10
2022-09-30T23:17:43.308Z,12.00
2022-09-30T23:20:30.806Z,12.00
2022-09-30T23:23:17.927Z,12.00
2022-09-30T23:26:18.165Z,11.90
2022-09-30T23:29:11.979Z,11.90
2022-09-30T23:31:59.513Z,11.90
2022-09-30T23:34:46.675Z,11.80
2022-09-30T23:37:34.133Z,11.90
2022-09-30T23:40:21.643Z,11.70
2022-09-30T23:43:09.276Z,11.80
2022-09-30T23:45:57.414Z,11.90
2022-09-30T23:48:45.871Z,11.80
2022-09-30T23:51:34.252Z,11.80
2022-09-30T23:54:22.065Z,11.80
2022-09-30T23:57:10.506Z,11.70
2022-09-30T23:59:57.923Z,11.60
